Time;durP1;ratioP1;P1;durP2;ratioP2;P2;SDS_P1;SDS_P2;PMS_P1;PMS_P2;Temp;Humidity;BMP_temperature;BMP_pressure;BME280_temperature;BME280_humidity;BME280_pressure;Samples;Min_cycle;Max_cycle;Signal;HPM_P1;HPM_P2
2021/12/29 00:01:47;;;;;;;12.25;1.95;;;;;;;;;;7393928;19;20005;-81
2021/12/29 00:04:13;;;;;;;12.52;2.88;;;;;;;;;;7393014;19;20054;-80
2021/12/29 00:06:39;;;;;;;9.75;1.90;;;;;;;;;;7391960;19;19998;-76
2021/12/29 00:09:04;;;;;;;7.10;1.45;;;;;;;;;;7391340;19;20347;-78
2021/12/29 00:11:30;;;;;;;12.13;2.58;;;;;;;;;;7392266;19;20002;-77
2021/12/29 00:13:56;;;;;;;11.70;3.42;;;;;;;;;;7391809;19;20032;-77
2021/12/29 00:16:21;;;;;;;13.48;2.95;;;;;;;;;;7393213;19;20019;-76
2021/12/29 00:18:46;;;;;;;11.25;2.25;;;;;;;;;;7394382;19;20009;-78
2021/12/29 00:21:14;;;;;;;9.15;1.92;;;;;;;;;;7392331;19;20123;-79
2021/12/29 00:23:39;;;;;;;10.05;1.80;;;;;;;;;;7391320;19;20038;-76
2021/12/29 00:26:05;;;;;;;11.65;1.75;;;;;;;;;;7388713;19;20478;-77
2021/12/29 00:28:31;;;;;;;15.07;3.15;;;;;;;;;;7390836;19;20370;-76
2021/12/29 00:30:56;;;;;;;9.48;2.10;;;;;;;;;;7391632;19;20006;-76
2021/12/29 00:33:21;;;;;;;13.55;3.55;;;;;;;;;;7389808;19;20462;-77
2021/12/29 00:35:48;;;;;;;9.65;1.92;;;;;;;;;;7390779;19;20031;-76
2021/12/29 00:38:13;;;;;;;15.65;2.30;;;;;;;;;;7389295;19;20386;-76
2021/12/29 00:40:39;;;;;;;9.65;2.35;;;;;;;;;;7391222;19;19999;-76
2021/12/29 00:43:06;;;;;;;8.88;2.05;;;;;;;;;;7390991;19;19994;-75
2021/12/29 00:45:36;;;;;;;21.45;3.75;;;;;;;;;;7391220;19;19998;-76
2021/12/29 00:48:11;;;;;;;7.22;1.60;;;;;;;;;;7390464;19;20020;-76
2021/12/29 00:50:37;;;;;;;7.20;1.10;;;;;;;;;;7391263;19;20019;-76
2021/12/29 00:53:02;;;;;;;8.10;1.85;;;;;;;;;;7390778;19;20002;-76
2021/12/29 00:55:28;;;;;;;11.55;1.70;;;;;;;;;;7390792;19;20111;-76
2021/12/29 00:57:53;;;;;;;7.70;1.15;;;;;;;;;;7390130;19;20007;-76
2021/12/29 01:00:21;;;;;;;9.02;2.05;;;;;;;;;;7390134;19;20690;-76
2021/12/29 01:02:50;;;;;;;8.18;1.70;;;;;;;;;;7390377;19;19994;-76
2021/12/29 01:05:17;;;;;;;7.18;1.52;;;;;;;;;;7391967;19;20013;-76
2021/12/29 01:07:44;;;;;;;12.95;1.80;;;;;;;;;;7392788;19;20525;-76
2021/12/29 01:10:11;;;;;;;9.68;1.70;;;;;;;;;;7389154;19;20014;-76
2021/12/29 01:12:36;;;;;;;9.00;2.00;;;;;;;;;;7389961;19;20010;-76
2021/12/29 01:15:03;;;;;;;12.77;1.77;;;;;;;;;;7388247;19;20037;-76
2021/12/29 01:17:31;;;;;;;9.45;2.08;;;;;;;;;;7388319;19;20003;-76
2021/12/29 01:19:56;;;;;;;9.27;1.95;;;;;;;;;;7389552;19;20006;-76
2021/12/29 01:22:22;;;;;;;10.68;2.10;;;;;;;;;;7389952;19;20022;-76
2021/12/29 01:24:47;;;;;;;7.85;1.75;;;;;;;;;;7389147;19;20470;-76
2021/12/29 01:27:14;;;;;;;7.88;1.90;;;;;;;;;;7388255;19;20002;-76
2021/12/29 01:29:41;;;;;;;13.43;1.77;;;;;;;;;;7389209;19;19999;-77
2021/12/29 01:32:06;;;;;;;11.63;1.80;;;;;;;;;;7390009;19;20003;-77
2021/12/29 01:34:32;;;;;;;9.90;1.30;;;;;;;;;;7389684;19;20072;-76
2021/12/29 01:36:58;;;;;;;10.38;1.85;;;;;;;;;;7391199;19;20002;-76
2021/12/29 01:39:24;;;;;;;9.60;1.55;;;;;;;;;;7393557;19;19995;-76
2021/12/29 01:41:52;;;;;;;11.68;2.67;;;;;;;;;;7397380;19;20337;-77
2021/12/29 01:44:21;;;;;;;11.70;1.60;;;;;;;;;;7396741;19;19994;-77
2021/12/29 01:46:46;;;;;;;7.15;1.20;;;;;;;;;;7395081;19;19999;-77
2021/12/29 01:49:12;;;;;;;3.88;0.73;;;;;;;;;;7396226;19;20018;-76
2021/12/29 01:51:48;;;;;;;11.90;2.40;;;;;;;;;;7397051;19;20025;-77
2021/12/29 01:56:39;;;;;;;11.20;2.40;;;;;;;;;;7399697;19;20070;-76
2021/12/29 01:59:05;;;;;;;11.65;1.52;;;;;;;;;;7393454;19;20002;-77
2021/12/29 02:01:30;;;;;;;7.68;1.42;;;;;;;;;;7399569;19;20006;-77
2021/12/29 02:03:58;;;;;;;8.52;1.77;;;;;;;;;;7396034;19;20473;-76
2021/12/29 02:06:23;;;;;;;6.50;1.30;;;;;;;;;;7395114;19;20390;-76
2021/12/29 02:08:48;;;;;;;9.93;1.23;;;;;;;;;;7394930;19;20006;-76
2021/12/29 02:11:14;;;;;;;11.95;2.40;;;;;;;;;;7395978;19;19990;-76
2021/12/29 02:13:39;;;;;;;5.55;1.35;;;;;;;;;;7395690;19;20338;-76
2021/12/29 02:16:04;;;;;;;11.80;2.50;;;;;;;;;;7395104;19;20006;-77
2021/12/29 02:18:31;;;;;;;9.18;1.88;;;;;;;;;;7393586;19;19999;-76
2021/12/29 02:20:56;;;;;;;5.10;1.60;;;;;;;;;;7399889;19;20009;-77
2021/12/29 02:23:55;;;;;;;7.32;1.60;;;;;;;;;;7395017;19;20006;-77
2021/12/29 02:26:13;;;;;;;7.65;1.30;;;;;;;;;;7394354;19;20006;-77
2021/12/29 02:28:41;;;;;;;7.45;1.25;;;;;;;;;;7394718;19;20007;-77
2021/12/29 02:31:07;;;;;;;7.28;1.20;;;;;;;;;;7395508;19;20438;-77
2021/12/29 02:33:34;;;;;;;5.65;1.00;;;;;;;;;;7395342;19;20002;-77
2021/12/29 02:36:00;;;;;;;7.47;0.93;;;;;;;;;;7394628;19;20427;-76
2021/12/29 02:38:30;;;;;;;5.75;1.02;;;;;;;;;;7392655;19;20005;-77
2021/12/29 02:41:03;;;;;;;8.23;1.30;;;;;;;;;;7395381;19;19999;-77
2021/12/29 02:43:28;;;;;;;11.25;1.63;;;;;;;;;;7395203;19;20020;-77
2021/12/29 02:46:00;;;;;;;6.20;1.20;;;;;;;;;;7397129;19;20002;-77
2021/12/29 02:48:31;;;;;;;15.27;1.55;;;;;;;;;;7391977;19;20014;-77
2021/12/29 02:50:59;;;;;;;10.45;1.85;;;;;;;;;;7395557;19;19998;-77
2021/12/29 02:53:25;;;;;;;11.38;1.40;;;;;;;;;;7393984;19;20058;-77
2021/12/29 02:55:52;;;;;;;12.88;2.20;;;;;;;;;;7394090;19;20036;-77
2021/12/29 02:58:17;;;;;;;12.38;1.55;;;;;;;;;;7393118;19;20059;-77
2021/12/29 03:00:43;;;;;;;10.88;2.28;;;;;;;;;;7394912;19;20034;-77
2021/12/29 03:03:15;;;;;;;13.27;2.17;;;;;;;;;;7394790;19;20316;-77
2021/12/29 03:05:40;;;;;;;16.98;1.70;;;;;;;;;;7394590;19;20007;-77
2021/12/29 03:08:05;;;;;;;11.43;1.92;;;;;;;;;;7393291;19;20009;-77
2021/12/29 03:10:31;;;;;;;15.10;1.48;;;;;;;;;;7392356;19;20006;-77
2021/12/29 03:12:56;;;;;;;12.07;2.30;;;;;;;;;;7394140;19;20003;-77
2021/12/29 03:15:24;;;;;;;5.13;1.10;;;;;;;;;;7394420;19;19991;-77
2021/12/29 03:17:50;;;;;;;8.68;1.38;;;;;;;;;;7393883;19;20002;-77
2021/12/29 03:20:15;;;;;;;7.13;1.60;;;;;;;;;;7393225;19;20356;-77
2021/12/29 03:22:40;;;;;;;7.90;1.92;;;;;;;;;;7393847;19;20120;-77
2021/12/29 03:25:06;;;;;;;5.38;1.55;;;;;;;;;;7393670;19;19998;-77
2021/12/29 03:27:32;;;;;;;9.35;2.65;;;;;;;;;;7391922;19;20432;-77
2021/12/29 03:29:57;;;;;;;4.75;1.40;;;;;;;;;;7393112;19;20444;-77
2021/12/29 03:32:36;;;;;;;5.10;1.20;;;;;;;;;;7393677;19;20479;-77
2021/12/29 03:35:02;;;;;;;11.90;1.70;;;;;;;;;;7397540;19;19998;-78
2021/12/29 03:37:27;;;;;;;10.85;2.58;;;;;;;;;;7395374;19;20002;-77
2021/12/29 03:39:53;;;;;;;14.05;2.08;;;;;;;;;;7391966;19;20450;-77
2021/12/29 03:42:18;;;;;;;10.63;1.20;;;;;;;;;;7393280;19;19995;-77
2021/12/29 03:44:43;;;;;;;8.57;1.63;;;;;;;;;;7393087;19;20006;-77
2021/12/29 03:47:08;;;;;;;12.77;1.45;;;;;;;;;;7391454;19;20033;-77
2021/12/29 03:49:34;;;;;;;6.50;1.40;;;;;;;;;;7392133;19;20005;-77
2021/12/29 03:51:59;;;;;;;9.80;1.25;;;;;;;;;;7392927;19;20002;-77
2021/12/29 03:54:24;;;;;;;5.60;1.23;;;;;;;;;;7392393;19;20015;-77
2021/12/29 03:56:49;;;;;;;4.60;0.90;;;;;;;;;;7391361;19;20343;-77
2021/12/29 03:59:16;;;;;;;5.45;1.42;;;;;;;;;;7389857;19;19999;-77
2021/12/29 04:01:42;;;;;;;6.43;1.20;;;;;;;;;;7392692;19;20578;-77
2021/12/29 04:04:07;;;;;;;12.85;1.25;;;;;;;;;;7393057;19;20006;-77
2021/12/29 04:06:32;;;;;;;8.93;1.42;;;;;;;;;;7391760;19;20023;-77
2021/12/29 04:08:58;;;;;;;5.47;0.90;;;;;;;;;;7390894;19;20499;-77
2021/12/29 04:11:23;;;;;;;5.60;1.08;;;;;;;;;;7392474;19;20440;-77
2021/12/29 04:13:50;;;;;;;3.08;0.88;;;;;;;;;;7392235;19;19998;-77
2021/12/29 04:16:18;;;;;;;11.02;1.70;;;;;;;;;;7391307;19;20009;-77
2021/12/29 04:19:07;;;;;;;9.40;1.20;;;;;;;;;;7389942;19;20017;-77
2021/12/29 04:21:37;;;;;;;10.23;1.20;;;;;;;;;;7391875;19;20034;-77
2021/12/29 04:24:04;;;;;;;6.15;1.10;;;;;;;;;;7394802;19;19995;-77
2021/12/29 04:26:31;;;;;;;6.22;0.90;;;;;;;;;;7395348;19;20340;-77
2021/12/29 04:28:56;;;;;;;6.15;1.00;;;;;;;;;;7390962;19;20017;-77
2021/12/29 04:31:22;;;;;;;6.38;1.08;;;;;;;;;;7391546;19;20364;-77
2021/12/29 04:33:49;;;;;;;2.53;0.80;;;;;;;;;;7391472;19;20100;-77
2021/12/29 04:36:15;;;;;;;2.72;0.68;;;;;;;;;;7390794;19;20010;-77
2021/12/29 04:38:41;;;;;;;7.07;0.80;;;;;;;;;;7389640;19;20003;-77
2021/12/29 04:41:06;;;;;;;6.85;1.40;;;;;;;;;;7391152;19;20355;-77
2021/12/29 04:43:31;;;;;;;7.55;1.00;;;;;;;;;;7391253;19;20466;-78
2021/12/29 04:45:56;;;;;;;3.90;0.75;;;;;;;;;;7390588;19;20073;-77
2021/12/29 04:48:24;;;;;;;5.43;0.77;;;;;;;;;;7390017;19;20017;-77
2021/12/29 04:50:50;;;;;;;4.55;0.60;;;;;;;;;;7390996;19;19995;-77
2021/12/29 04:53:17;;;;;;;2.65;0.50;;;;;;;;;;7389949;19;20512;-77
2021/12/29 04:55:45;;;;;;;2.65;0.82;;;;;;;;;;7390506;19;20006;-77
2021/12/29 04:58:11;;;;;;;1.95;0.75;;;;;;;;;;7389182;19;20023;-77
2021/12/29 05:00:37;;;;;;;2.88;0.50;;;;;;;;;;7390488;19;20520;-77
2021/12/29 05:03:03;;;;;;;10.10;1.25;;;;;;;;;;7390475;19;19995;-77
2021/12/29 05:10:46;;;;;;;4.35;0.90;;;;;;;;;;7389566;19;20488;-77
2021/12/29 05:13:12;;;;;;;5.05;0.60;;;;;;;;;;7392875;19;20035;-77
2021/12/29 05:15:37;;;;;;;4.80;0.50;;;;;;;;;;7394224;19;20002;-77
2021/12/29 05:18:03;;;;;;;3.95;0.60;;;;;;;;;;7389358;19;19999;-77
2021/12/29 05:20:32;;;;;;;4.25;0.60;;;;;;;;;;7390424;19;20005;-77
2021/12/29 05:22:59;;;;;;;5.82;0.60;;;;;;;;;;7389946;19;19999;-78
2021/12/29 05:25:25;;;;;;;2.42;0.50;;;;;;;;;;7389418;19;20019;-77
2021/12/29 05:27:51;;;;;;;3.25;0.60;;;;;;;;;;7389981;19;19994;-77
2021/12/29 05:30:17;;;;;;;5.55;0.82;;;;;;;;;;7389009;19;20018;-77
2021/12/29 05:32:42;;;;;;;4.72;0.90;;;;;;;;;;7389867;19;20469;-76
2021/12/29 05:35:08;;;;;;;3.15;0.60;;;;;;;;;;7389749;19;19995;-76
2021/12/29 05:37:33;;;;;;;1.90;0.57;;;;;;;;;;7387664;19;20461;-76
2021/12/29 05:39:59;;;;;;;2.05;0.57;;;;;;;;;;7386052;19;19999;-76
2021/12/29 05:42:24;;;;;;;3.00;0.50;;;;;;;;;;7389324;19;20335;-76
2021/12/29 05:44:49;;;;;;;3.38;0.55;;;;;;;;;;7389134;19;19999;-76
2021/12/29 05:47:15;;;;;;;2.58;0.90;;;;;;;;;;7387526;19;20027;-77
2021/12/29 05:49:40;;;;;;;8.77;3.75;;;;;;;;;;7389273;19;19998;-76
2021/12/29 05:52:06;;;;;;;6.45;2.90;;;;;;;;;;7389096;19;20335;-77
2021/12/29 05:54:32;;;;;;;19.20;8.77;;;;;;;;;;7387965;19;20438;-77
2021/12/29 05:56:58;;;;;;;17.35;7.60;;;;;;;;;;7387588;19;20037;-76
2021/12/29 05:59:23;;;;;;;7.05;4.13;;;;;;;;;;7388627;19;20002;-77
2021/12/29 06:01:48;;;;;;;5.25;2.03;;;;;;;;;;7389639;19;20011;-77
2021/12/29 06:04:13;;;;;;;6.93;2.28;;;;;;;;;;7391833;19;19999;-76
2021/12/29 06:06:39;;;;;;;2.70;1.10;;;;;;;;;;7388443;19;20006;-76
2021/12/29 06:09:04;;;;;;;1.88;0.50;;;;;;;;;;7386876;19;20327;-77
2021/12/29 06:11:29;;;;;;;1.52;0.40;;;;;;;;;;7388549;19;20041;-77
2021/12/29 06:13:55;;;;;;;4.40;0.65;;;;;;;;;;7388575;19;20020;-77
2021/12/29 06:16:20;;;;;;;4.97;1.13;;;;;;;;;;7387654;19;19998;-76
2021/12/29 06:18:45;;;;;;;6.28;0.90;;;;;;;;;;7386562;19;20005;-76
2021/12/29 06:21:16;;;;;;;3.05;1.00;;;;;;;;;;7388587;19;20023;-77
2021/12/29 06:23:46;;;;;;;2.58;0.50;;;;;;;;;;7393468;19;20232;-76
2021/12/29 06:26:11;;;;;;;2.85;0.47;;;;;;;;;;7395063;19;20010;-76
2021/12/29 06:28:37;;;;;;;4.90;0.95;;;;;;;;;;7395447;19;19995;-76
2021/12/29 06:31:02;;;;;;;2.80;0.52;;;;;;;;;;7395769;19;20334;-76
2021/12/29 06:33:28;;;;;;;0.70;0.40;;;;;;;;;;7394074;19;20066;-76
2021/12/29 06:35:53;;;;;;;2.15;1.10;;;;;;;;;;7395046;19;20473;-76
2021/12/29 06:38:18;;;;;;;2.30;0.57;;;;;;;;;;7392903;19;20006;-76
2021/12/29 06:40:43;;;;;;;1.73;0.40;;;;;;;;;;7395267;19;19998;-77
2021/12/29 06:43:09;;;;;;;6.65;1.15;;;;;;;;;;7394744;19;19995;-76
2021/12/29 06:45:34;;;;;;;2.95;0.50;;;;;;;;;;7394786;19;19998;-75
2021/12/29 06:47:59;;;;;;;2.58;0.55;;;;;;;;;;7394732;19;20073;-75
2021/12/29 06:50:25;;;;;;;4.25;0.70;;;;;;;;;;7394193;19;19998;-75
2021/12/29 06:52:50;;;;;;;2.10;0.47;;;;;;;;;;7397375;19;20099;-75
2021/12/29 06:55:16;;;;;;;1.83;0.60;;;;;;;;;;7397494;19;20446;-75
2021/12/29 06:57:41;;;;;;;2.53;0.70;;;;;;;;;;7391887;19;19995;-75
2021/12/29 07:00:07;;;;;;;4.15;0.40;;;;;;;;;;7393913;19;20083;-75
2021/12/29 07:02:33;;;;;;;3.78;0.80;;;;;;;;;;7394630;19;20003;-75
2021/12/29 07:04:58;;;;;;;3.63;0.70;;;;;;;;;;7394281;19;20026;-75
2021/12/29 07:07:23;;;;;;;3.92;0.68;;;;;;;;;;7391825;19;19999;-76
2021/12/29 07:09:48;;;;;;;4.18;0.98;;;;;;;;;;7393461;19;20002;-77
2021/12/29 07:12:14;;;;;;;1.13;0.60;;;;;;;;;;7394751;19;20002;-77
2021/12/29 07:14:39;;;;;;;9.40;0.70;;;;;;;;;;7394319;19;19991;-78
2021/12/29 07:17:05;;;;;;;2.25;0.82;;;;;;;;;;7392502;19;20100;-77
2021/12/29 07:19:31;;;;;;;4.25;1.52;;;;;;;;;;7391292;19;20478;-77
2021/12/29 07:21:59;;;;;;;1.20;0.88;;;;;;;;;;7393977;19;20074;-78
2021/12/29 07:24:25;;;;;;;3.30;1.10;;;;;;;;;;7393597;19;20456;-78
2021/12/29 07:26:50;;;;;;;2.08;0.90;;;;;;;;;;7392778;19;20002;-77
2021/12/29 07:29:15;;;;;;;1.52;0.68;;;;;;;;;;7392999;19;20498;-77
2021/12/29 07:31:41;;;;;;;3.35;0.88;;;;;;;;;;7393655;19;20066;-77
2021/12/29 07:34:07;;;;;;;7.55;1.02;;;;;;;;;;7392266;19;20002;-77
2021/12/29 07:36:33;;;;;;;2.60;1.27;;;;;;;;;;7392400;19;20003;-78
2021/12/29 07:38:58;;;;;;;3.78;1.42;;;;;;;;;;7391394;19;19997;-78
2021/12/29 07:41:24;;;;;;;2.47;0.65;;;;;;;;;;7394760;19;20003;-78
2021/12/29 07:43:51;;;;;;;1.83;0.70;;;;;;;;;;7393961;19;20430;-76
2021/12/29 07:46:16;;;;;;;2.35;0.80;;;;;;;;;;7392225;19;20070;-76
2021/12/29 07:48:41;;;;;;;1.50;0.63;;;;;;;;;;7392878;19;19999;-79
2021/12/29 07:51:07;;;;;;;7.10;1.05;;;;;;;;;;7393947;19;20046;-78
2021/12/29 07:53:37;;;;;;;4.40;1.55;;;;;;;;;;7392668;19;20386;-78
2021/12/29 07:56:04;;;;;;;7.07;1.45;;;;;;;;;;7393221;19;19999;-78
2021/12/29 07:58:30;;;;;;;8.75;1.85;;;;;;;;;;7391992;19;20023;-78
2021/12/29 08:00:55;;;;;;;4.53;1.20;;;;;;;;;;7397028;19;20010;-78
2021/12/29 08:03:20;;;;;;;7.25;2.30;;;;;;;;;;7392607;19;20486;-76
2021/12/29 08:05:46;;;;;;;5.88;1.00;;;;;;;;;;7391764;19;20009;-77
2021/12/29 08:08:11;;;;;;;3.92;0.70;;;;;;;;;;7391040;19;19995;-77
2021/12/29 08:10:38;;;;;;;3.33;0.60;;;;;;;;;;7392157;19;20024;-77
2021/12/29 08:13:05;;;;;;;3.78;1.60;;;;;;;;;;7391010;19;20002;-77
2021/12/29 08:15:32;;;;;;;3.95;1.35;;;;;;;;;;7392000;19;20006;-76
2021/12/29 08:17:58;;;;;;;7.38;1.60;;;;;;;;;;7391563;19;20465;-76
2021/12/29 08:20:24;;;;;;;1.85;1.00;;;;;;;;;;7391262;19;20019;-76
2021/12/29 08:22:49;;;;;;;1.92;0.52;;;;;;;;;;7391879;19;19987;-76
2021/12/29 08:25:15;;;;;;;3.42;0.70;;;;;;;;;;7390852;19;19991;-76
2021/12/29 08:27:40;;;;;;;1.95;0.65;;;;;;;;;;7389693;19;20470;-76
2021/12/29 08:30:07;;;;;;;2.47;0.43;;;;;;;;;;7390763;19;20058;-75
2021/12/29 08:32:32;;;;;;;3.80;0.95;;;;;;;;;;7395155;19;20010;-75
2021/12/29 08:34:58;;;;;;;2.95;0.63;;;;;;;;;;7394283;19;20006;-76
2021/12/29 08:37:23;;;;;;;3.10;0.52;;;;;;;;;;7389647;19;19998;-76
2021/12/29 08:39:49;;;;;;;4.10;0.70;;;;;;;;;;7388567;19;20007;-76
2021/12/29 08:42:14;;;;;;;3.30;0.95;;;;;;;;;;7391143;19;19999;-76
2021/12/29 08:44:39;;;;;;;1.63;0.55;;;;;;;;;;7390772;19;19998;-77
2021/12/29 08:47:05;;;;;;;0.75;0.40;;;;;;;;;;7387079;19;19994;-76
2021/12/29 08:49:31;;;;;;;3.85;1.17;;;;;;;;;;7389988;19;20005;-75
2021/12/29 08:51:57;;;;;;;3.50;0.47;;;;;;;;;;7390950;19;20042;-75
2021/12/29 08:54:22;;;;;;;4.50;1.08;;;;;;;;;;7390033;19;20090;-75
2021/12/29 08:56:48;;;;;;;3.40;0.77;;;;;;;;;;7389527;19;20005;-75
2021/12/29 08:59:13;;;;;;;4.22;0.82;;;;;;;;;;7388635;19;20006;-76
2021/12/29 09:01:40;;;;;;;20.55;7.90;;;;;;;;;;7390390;19;20098;-75
2021/12/29 09:04:06;;;;;;;6.88;2.60;;;;;;;;;;7389921;19;20013;-76
2021/12/29 09:06:33;;;;;;;3.45;1.65;;;;;;;;;;7390368;19;20010;-76
2021/12/29 09:08:58;;;;;;;3.50;0.80;;;;;;;;;;7389343;19;19997;-77
2021/12/29 09:11:24;;;;;;;3.25;0.70;;;;;;;;;;7390954;19;19991;-77
2021/12/29 09:13:49;;;;;;;4.00;0.60;;;;;;;;;;7390207;19;19994;-76
2021/12/29 09:16:14;;;;;;;3.67;1.10;;;;;;;;;;7389305;19;19990;-76
2021/12/29 09:18:39;;;;;;;3.97;0.95;;;;;;;;;;7388285;19;20015;-76
2021/12/29 09:21:12;;;;;;;3.17;0.93;;;;;;;;;;7391397;19;20021;-76
2021/12/29 09:23:38;;;;;;;4.93;0.80;;;;;;;;;;7393334;19;20003;-76
2021/12/29 09:26:04;;;;;;;0.85;0.57;;;;;;;;;;7389532;19;20019;-76
2021/12/29 09:28:31;;;;;;;3.63;0.50;;;;;;;;;;7388892;19;20020;-76
2021/12/29 09:30:57;;;;;;;4.60;0.90;;;;;;;;;;7389884;19;20003;-76
2021/12/29 09:33:22;;;;;;;2.05;0.70;;;;;;;;;;7389513;19;19995;-76
2021/12/29 09:35:51;;;;;;;3.10;0.77;;;;;;;;;;7389204;19;20006;-76
2021/12/29 09:38:18;;;;;;;3.58;0.70;;;;;;;;;;7387673;19;20003;-76
2021/12/29 09:40:45;;;;;;;3.65;0.63;;;;;;;;;;7389811;19;20009;-76
2021/12/29 09:43:11;;;;;;;3.95;0.82;;;;;;;;;;7389171;19;20005;-76
2021/12/29 09:45:38;;;;;;;4.47;0.75;;;;;;;;;;7388736;19;20425;-76
2021/12/29 09:48:04;;;;;;;2.38;0.65;;;;;;;;;;7388779;19;20005;-76
2021/12/29 09:50:29;;;;;;;5.13;0.60;;;;;;;;;;7389508;19;19995;-76
2021/12/29 09:52:56;;;;;;;4.93;1.08;;;;;;;;;;7393405;19;20006;-76
2021/12/29 09:55:23;;;;;;;2.38;0.40;;;;;;;;;;7388173;19;20096;-76
2021/12/29 09:57:53;;;;;;;1.75;0.52;;;;;;;;;;7389235;19;20005;-76
2021/12/29 10:00:18;;;;;;;1.60;0.50;;;;;;;;;;7395760;19;20036;-77
2021/12/29 10:02:44;;;;;;;5.97;0.60;;;;;;;;;;7396201;19;20465;-76
2021/12/29 10:05:09;;;;;;;3.17;0.47;;;;;;;;;;7396129;19;19995;-76
2021/12/29 10:07:35;;;;;;;2.35;0.65;;;;;;;;;;7393977;19;20104;-76
2021/12/29 10:10:00;;;;;;;4.70;0.70;;;;;;;;;;7395223;19;20461;-76
2021/12/29 10:12:27;;;;;;;3.65;0.73;;;;;;;;;;7399115;19;19997;-75
2021/12/29 10:14:59;;;;;;;0.80;0.40;;;;;;;;;;7398611;19;20011;-75
2021/12/29 10:17:27;;;;;;;1.85;0.52;;;;;;;;;;7394040;19;19995;-75
2021/12/29 10:20:09;;;;;;;1.95;0.60;;;;;;;;;;7393028;19;19990;-76
2021/12/29 10:22:35;;;;;;;1.02;0.40;;;;;;;;;;7395737;19;20101;-76
2021/12/29 10:25:11;;;;;;;3.60;0.77;;;;;;;;;;7395058;19;19999;-76
2021/12/29 10:27:38;;;;;;;2.75;0.60;;;;;;;;;;7392801;19;20002;-75
2021/12/29 10:30:29;;;;;;;4.80;0.68;;;;;;;;;;7394926;19;20095;-75
2021/12/29 10:32:58;;;;;;;2.80;0.60;;;;;;;;;;7394273;19;19994;-76
2021/12/29 10:35:31;;;;;;;2.13;0.90;;;;;;;;;;7395349;19;20005;-76
2021/12/29 10:38:11;;;;;;;2.30;0.45;;;;;;;;;;7394837;19;19995;-76
2021/12/29 10:40:37;;;;;;;4.07;0.70;;;;;;;;;;7393606;19;20371;-75
2021/12/29 10:43:02;;;;;;;4.32;0.73;;;;;;;;;;7394794;19;20532;-76
2021/12/29 10:45:34;;;;;;;1.17;0.40;;;;;;;;;;7394883;19;20498;-75
2021/12/29 10:48:01;;;;;;;1.13;0.32;;;;;;;;;;7393273;19;20002;-75
2021/12/29 10:50:27;;;;;;;2.20;0.52;;;;;;;;;;7394774;19;20015;-76
2021/12/29 10:52:56;;;;;;;1.92;0.60;;;;;;;;;;7394700;19;20338;-76
2021/12/29 10:55:34;;;;;;;4.43;1.27;;;;;;;;;;7394419;19;20003;-76
2021/12/29 10:58:05;;;;;;;7.00;1.15;;;;;;;;;;7393953;19;19997;-76
2021/12/29 11:00:31;;;;;;;3.28;0.50;;;;;;;;;;7394320;19;20010;-76
2021/12/29 11:03:26;;;;;;;2.35;0.57;;;;;;;;;;7398696;19;19991;-76
2021/12/29 11:05:58;;;;;;;3.03;1.10;;;;;;;;;;7393876;19;20058;-76
2021/12/29 11:08:44;;;;;;;4.03;1.10;;;;;;;;;;7392580;19;20015;-76
2021/12/29 11:11:09;;;;;;;4.47;1.48;;;;;;;;;;7394299;19;20026;-76
2021/12/29 11:13:35;;;;;;;5.78;1.25;;;;;;;;;;7394006;19;20518;-75
2021/12/29 11:16:01;;;;;;;8.75;1.63;;;;;;;;;;7393348;19;20074;-76
2021/12/29 11:18:39;;;;;;;2.85;0.90;;;;;;;;;;7392315;19;19999;-76
2021/12/29 11:21:05;;;;;;;2.92;1.00;;;;;;;;;;7394142;19;19995;-76
2021/12/29 11:23:30;;;;;;;4.75;1.45;;;;;;;;;;7392863;19;20024;-76
2021/12/29 11:26:00;;;;;;;5.28;1.58;;;;;;;;;;7393032;19;20005;-76
2021/12/29 11:28:28;;;;;;;3.95;2.33;;;;;;;;;;7392853;19;19999;-76
2021/12/29 11:30:55;;;;;;;5.03;0.80;;;;;;;;;;7393631;19;20561;-76
2021/12/29 11:33:21;;;;;;;2.33;0.85;;;;;;;;;;7394200;19;20005;-76
2021/12/29 11:35:50;;;;;;;3.90;0.93;;;;;;;;;;7393577;19;20533;-76
2021/12/29 11:38:17;;;;;;;6.22;0.90;;;;;;;;;;7391447;19;20005;-76
2021/12/29 11:40:47;;;;;;;2.38;1.00;;;;;;;;;;7393401;19;20085;-76
2021/12/29 11:43:16;;;;;;;2.85;0.55;;;;;;;;;;7392676;19;20006;-76
2021/12/29 11:45:44;;;;;;;2.55;0.80;;;;;;;;;;7392741;19;20524;-76
2021/12/29 11:48:11;;;;;;;2.97;0.75;;;;;;;;;;7393845;19;20490;-77
2021/12/29 11:50:39;;;;;;;2.88;1.00;;;;;;;;;;7393251;19;19994;-76
2021/12/29 11:53:35;;;;;;;5.90;0.90;;;;;;;;;;7394818;19;20356;-77
2021/12/29 11:56:21;;;;;;;4.43;0.52;;;;;;;;;;7392541;19;20006;-76
2021/12/29 11:58:49;;;;;;;2.25;0.70;;;;;;;;;;7391276;19;19998;-76
2021/12/29 12:01:18;;;;;;;3.90;0.70;;;;;;;;;;7392202;19;19999;-77
2021/12/29 12:03:53;;;;;;;4.90;1.55;;;;;;;;;;7391953;19;20484;-77
2021/12/29 12:06:19;;;;;;;4.63;2.53;;;;;;;;;;7391890;19;20002;-76
2021/12/29 12:08:45;;;;;;;11.35;5.13;;;;;;;;;;7390785;19;20466;-76
2021/12/29 12:11:25;;;;;;;9.38;4.07;;;;;;;;;;7391979;19;20023;-76
2021/12/29 12:13:50;;;;;;;5.53;2.50;;;;;;;;;;7391872;19;20010;-76
2021/12/29 12:16:16;;;;;;;4.75;1.50;;;;;;;;;;7391534;19;19995;-76
2021/12/29 12:18:52;;;;;;;7.63;2.53;;;;;;;;;;7390390;19;19991;-77
2021/12/29 12:21:32;;;;;;;4.78;2.05;;;;;;;;;;7391662;19;20342;-77
2021/12/29 12:24:17;;;;;;;4.75;2.88;;;;;;;;;;7391017;19;20382;-77
2021/12/29 12:26:56;;;;;;;;;;;;;;;;;;7391327;19;20502;-77
2021/12/29 12:29:30;;;;;;;3.90;0.98;;;;;;;;;;7390826;19;20318;-76
2021/12/29 12:32:09;;;;;;;3.47;1.00;;;;;;;;;;7391741;19;20383;-77
2021/12/29 12:34:47;;;;;;;2.65;0.90;;;;;;;;;;7391488;19;20002;-77
2021/12/29 12:37:45;;;;;;;6.03;3.58;;;;;;;;;;7390726;19;20002;-77
2021/12/29 12:40:25;;;;;;;2.45;1.15;;;;;;;;;;7387761;19;20758;-77
2021/12/29 12:43:12;;;;;;;3.30;1.02;;;;;;;;;;7394866;19;19990;-77
2021/12/29 12:45:45;;;;;;;2.47;0.93;;;;;;;;;;7395515;19;19995;-77
2021/12/29 12:48:14;;;;;;;2.28;0.95;;;;;;;;;;7390161;19;20457;-77
2021/12/29 12:50:42;;;;;;;1.70;0.95;;;;;;;;;;7391310;19;19999;-76
2021/12/29 12:53:08;;;;;;;2.38;0.95;;;;;;;;;;7388180;19;20470;-77
2021/12/29 12:55:45;;;;;;;4.38;0.95;;;;;;;;;;7390874;19;20017;-77
2021/12/29 12:58:14;;;;;;;2.35;0.82;;;;;;;;;;7389818;19;20018;-77
2021/12/29 13:00:49;;;;;;;5.95;1.90;;;;;;;;;;7391018;19;20023;-77
2021/12/29 13:03:16;;;;;;;;;;;;;;;;;;7391293;19;19995;-76
2021/12/29 13:05:44;;;;;;;6.50;1.50;;;;;;;;;;7390019;19;19931;-77
2021/12/29 13:08:16;;;;;;;7.65;1.95;;;;;;;;;;7389306;19;20387;-77
2021/12/29 13:10:48;;;;;;;2.83;1.30;;;;;;;;;;7390637;19;20002;-76
2021/12/29 13:13:20;;;;;;;3.75;1.20;;;;;;;;;;7390195;19;20005;-77
2021/12/29 13:15:48;;;;;;;5.13;1.17;;;;;;;;;;7390288;19;19998;-77
2021/12/29 13:18:15;;;;;;;6.82;1.50;;;;;;;;;;7389152;19;20007;-77
2021/12/29 13:20:43;;;;;;;5.78;1.00;;;;;;;;;;7390444;19;20476;-77
2021/12/29 13:23:11;;;;;;;4.28;0.88;;;;;;;;;;7389141;19;20498;-77
2021/12/29 13:25:40;;;;;;;4.72;1.05;;;;;;;;;;7390220;19;20003;-77
2021/12/29 13:28:12;;;;;;;8.13;1.08;;;;;;;;;;7389938;19;19990;-77
2021/12/29 13:30:41;;;;;;;7.85;1.40;;;;;;;;;;7389888;19;20015;-77
2021/12/29 13:33:06;;;;;;;4.63;1.52;;;;;;;;;;7391874;19;20019;-77
2021/12/29 13:35:34;;;;;;;7.00;1.73;;;;;;;;;;7393927;19;20007;-77
2021/12/29 13:38:06;;;;;;;8.32;2.00;;;;;;;;;;7388966;19;19998;-78
2021/12/29 13:40:37;;;;;;;11.70;1.42;;;;;;;;;;7391688;19;20325;-77
2021/12/29 13:43:09;;;;;;;7.72;1.17;;;;;;;;;;7389151;19;20352;-77
2021/12/29 13:45:35;;;;;;;6.07;1.60;;;;;;;;;;7389719;19;20011;-78
2021/12/29 13:48:01;;;;;;;10.77;1.60;;;;;;;;;;7389044;19;20075;-77
2021/12/29 13:50:26;;;;;;;5.20;1.10;;;;;;;;;;7388687;19;20077;-77
2021/12/29 13:53:04;;;;;;;5.63;1.30;;;;;;;;;;7389130;19;19995;-77
2021/12/29 13:55:42;;;;;;;6.57;1.60;;;;;;;;;;7389385;19;19991;-77
2021/12/29 13:58:13;;;;;;;5.70;1.05;;;;;;;;;;7388564;19;19999;-78
2021/12/29 14:00:38;;;;;;;2.35;0.80;;;;;;;;;;7389198;19;20447;-77
2021/12/29 14:03:04;;;;;;;4.63;0.98;;;;;;;;;;7388862;19;19998;-78
2021/12/29 14:05:44;;;;;;;5.55;0.90;;;;;;;;;;7388978;19;20111;-78
2021/12/29 14:08:13;;;;;;;3.90;1.15;;;;;;;;;;7387527;19;20023;-77
2021/12/29 14:10:40;;;;;;;4.03;0.85;;;;;;;;;;7387481;19;19998;-77
2021/12/29 14:13:12;;;;;;;8.07;1.25;;;;;;;;;;7388653;19;20002;-77
2021/12/29 14:15:38;;;;;;;3.13;0.80;;;;;;;;;;7388352;19;20029;-77
2021/12/29 14:18:17;;;;;;;3.03;0.82;;;;;;;;;;7387832;19;20098;-78
2021/12/29 14:20:42;;;;;;;5.28;1.20;;;;;;;;;;7388972;19;20395;-76
2021/12/29 14:23:09;;;;;;;4.13;1.25;;;;;;;;;;7389242;19;20006;-77
2021/12/29 14:25:36;;;;;;;2.38;0.82;;;;;;;;;;7392281;19;20494;-77
2021/12/29 14:28:03;;;;;;;4.10;1.75;;;;;;;;;;7388367;19;20524;-76
2021/12/29 14:30:29;;;;;;;2.30;0.93;;;;;;;;;;7388489;19;19999;-77
2021/12/29 14:32:57;;;;;;;3.22;0.68;;;;;;;;;;7387984;19;20360;-77
2021/12/29 14:35:24;;;;;;;2.85;0.70;;;;;;;;;;7388134;19;19995;-77
2021/12/29 14:37:50;;;;;;;2.33;0.73;;;;;;;;;;7385906;19;19998;-77
2021/12/29 14:40:27;;;;;;;4.45;1.00;;;;;;;;;;7386725;19;19995;-76
2021/12/29 14:42:53;;;;;;;0.50;0.40;;;;;;;;;;7387626;19;20001;-77
2021/12/29 14:45:19;;;;;;;1.95;0.60;;;;;;;;;;7391997;19;20354;-77
2021/12/29 14:47:46;;;;;;;0.35;0.32;;;;;;;;;;7392232;19;19998;-77
2021/12/29 14:50:20;;;;;;;2.33;0.60;;;;;;;;;;7394566;19;20508;-76
2021/12/29 14:52:46;;;;;;;1.08;0.47;;;;;;;;;;7395419;19;19994;-77